SBPS Airport Information

Runway Information
Runway 10 Length 6562 ft width 148 ft
Elevation 0 ft Threshold 0 ft Heading 0
Runway 28 Length 6562 ft Width 148 ft
Elevation 0 ft Threshold 0 ft Heading 0
Airport Frequencies
Type TWR Name TWR Frequency 118.2 MHZ
Airport Navaids
Type NDB Name Porto Seguro Frequency 385 KHZ
Airport Weather Information & NOTAM
ADDS - METARS form results

(0232 UTC 15 August 2020)
Data provider http://aviationweather.gov/metar/data/
 
METAR text: SBPS 150200Z 09006KT CAVOK 23/19 Q1018
Conditions at: SBPS (PORTO SEGURO , BR) observed 0200 UTC 15 August 2020
Temperature: 23.0°C (73°F)
Dewpoint: 19.0°C (66°F) [RH = 78%]
Pressure (altimeter): 30.06 inches Hg (1018.0 mb)
Winds: from the E (90 degrees) at 7 MPH (6 knots; 3.1 m/s)
Visibility: 6 or more miles (10+ km)
Ceiling: ceiling and visibility are OK
Clouds: unknown
Weather: no significant weather observed at this time

Forecast for: SBPS (PORTO SEGURO , BR)
Text: TAF SBPS 142100Z 1500/1524 06005KT 8000 FEW020 TN21/1509Z TX24/1515Z RMK PDE
Forecast period: 0000 UTC 15 August 2020 to 0000 UTC 16 August 2020
Forecast type: FROM: standard forecast or significant change
Winds: from the ENE (60 degrees) at 6 MPH (5 knots; 2.6 m/s)
Visibility: 5 miles (8 km)
Ceiling: at least 12,000 feet AGL
Clouds: few clouds at 2000 feet AGL
Weather: no significant weather forecast for this period